sensor_id;sensor_type;location;lat;lon;timestamp;P1;durP1;ratioP1;P2;durP2;ratioP2
54871;SDS011;43914;57.680;11.982;2024-01-11T00:02:18;18.30;;;5.20;;
54871;SDS011;43914;57.680;11.982;2024-01-11T00:04:44;25.50;;;4.60;;
54871;SDS011;43914;57.680;11.982;2024-01-11T00:07:09;20.70;;;4.20;;
54871;SDS011;43914;57.680;11.982;2024-01-11T00:09:38;38.20;;;5.00;;
54871;SDS011;43914;57.680;11.982;2024-01-11T00:12:08;38.40;;;5.20;;
54871;SDS011;43914;57.680;11.982;2024-01-11T00:14:34;42.00;;;5.60;;
54871;SDS011;43914;57.680;11.982;2024-01-11T00:17:00;19.00;;;4.70;;
54871;SDS011;43914;57.680;11.982;2024-01-11T00:19:25;20.10;;;4.50;;
54871;SDS011;43914;57.680;11.982;2024-01-11T00:21:51;16.60;;;4.70;;
54871;SDS011;43914;57.680;11.982;2024-01-11T00:24:16;35.00;;;5.00;;
54871;SDS011;43914;57.680;11.982;2024-01-11T00:26:42;15.40;;;4.70;;
54871;SDS011;43914;57.680;11.982;2024-01-11T00:29:07;19.30;;;5.30;;
54871;SDS011;43914;57.680;11.982;2024-01-11T00:31:33;21.10;;;4.70;;
54871;SDS011;43914;57.680;11.982;2024-01-11T00:33:59;12.10;;;4.50;;
54871;SDS011;43914;57.680;11.982;2024-01-11T00:36:24;31.00;;;5.10;;
54871;SDS011;43914;57.680;11.982;2024-01-11T00:38:50;19.80;;;4.80;;
54871;SDS011;43914;57.680;11.982;2024-01-11T00:41:15;30.10;;;5.20;;
54871;SDS011;43914;57.680;11.982;2024-01-11T00:43:41;12.80;;;4.30;;
54871;SDS011;43914;57.680;11.982;2024-01-11T00:46:07;12.50;;;4.40;;
54871;SDS011;43914;57.680;11.982;2024-01-11T00:48:32;10.80;;;4.30;;
54871;SDS011;43914;57.680;11.982;2024-01-11T00:50:58;12.60;;;4.40;;
54871;SDS011;43914;57.680;11.982;2024-01-11T00:53:24;11.50;;;4.20;;
54871;SDS011;43914;57.680;11.982;2024-01-11T00:55:50;13.10;;;4.80;;
54871;SDS011;43914;57.680;11.982;2024-01-11T00:58:16;12.70;;;4.30;;
54871;SDS011;43914;57.680;11.982;2024-01-11T01:00:41;39.70;;;5.20;;
54871;SDS011;43914;57.680;11.982;2024-01-11T01:03:07;15.00;;;4.70;;
54871;SDS011;43914;57.680;11.982;2024-01-11T01:05:32;16.00;;;4.70;;
54871;SDS011;43914;57.680;11.982;2024-01-11T01:07:58;14.20;;;5.20;;
54871;SDS011;43914;57.680;11.982;2024-01-11T01:10:23;21.00;;;5.60;;
54871;SDS011;43914;57.680;11.982;2024-01-11T01:12:49;24.30;;;5.60;;
54871;SDS011;43914;57.680;11.982;2024-01-11T01:15:14;15.30;;;5.40;;
54871;SDS011;43914;57.680;11.982;2024-01-11T01:17:40;17.20;;;4.70;;
54871;SDS011;43914;57.680;11.982;2024-01-11T01:20:06;13.20;;;4.20;;
54871;SDS011;43914;57.680;11.982;2024-01-11T01:22:33;14.00;;;4.90;;
54871;SDS011;43914;57.680;11.982;2024-01-11T01:24:58;16.10;;;5.00;;
54871;SDS011;43914;57.680;11.982;2024-01-11T01:27:24;12.80;;;4.90;;
54871;SDS011;43914;57.680;11.982;2024-01-11T01:29:49;13.30;;;5.50;;
54871;SDS011;43914;57.680;11.982;2024-01-11T01:32:15;22.80;;;6.60;;
54871;SDS011;43914;57.680;11.982;2024-01-11T01:34:40;20.20;;;6.00;;
54871;SDS011;43914;57.680;11.982;2024-01-11T01:37:06;15.70;;;5.50;;
54871;SDS011;43914;57.680;11.982;2024-01-11T01:39:31;12.80;;;5.30;;
54871;SDS011;43914;57.680;11.982;2024-01-11T01:41:57;20.00;;;6.00;;
54871;SDS011;43914;57.680;11.982;2024-01-11T01:44:22;13.70;;;4.80;;
54871;SDS011;43914;57.680;11.982;2024-01-11T01:46:48;18.60;;;5.50;;
54871;SDS011;43914;57.680;11.982;2024-01-11T01:49:14;15.50;;;6.40;;
54871;SDS011;43914;57.680;11.982;2024-01-11T01:51:43;13.50;;;5.70;;
54871;SDS011;43914;57.680;11.982;2024-01-11T01:54:08;14.50;;;6.20;;
54871;SDS011;43914;57.680;11.982;2024-01-11T01:56:35;12.30;;;5.50;;
54871;SDS011;43914;57.680;11.982;2024-01-11T01:59:01;14.20;;;5.70;;
54871;SDS011;43914;57.680;11.982;2024-01-11T02:01:28;12.30;;;4.90;;
54871;SDS011;43914;57.680;11.982;2024-01-11T02:03:53;16.60;;;6.50;;
54871;SDS011;43914;57.680;11.982;2024-01-11T02:06:21;16.30;;;6.20;;
54871;SDS011;43914;57.680;11.982;2024-01-11T02:08:49;13.10;;;5.30;;
54871;SDS011;43914;57.680;11.982;2024-01-11T02:11:19;13.80;;;5.20;;
54871;SDS011;43914;57.680;11.982;2024-01-11T02:13:46;13.90;;;4.90;;
54871;SDS011;43914;57.680;11.982;2024-01-11T02:16:13;11.00;;;4.70;;
54871;SDS011;43914;57.680;11.982;2024-01-11T02:18:38;11.30;;;4.60;;
54871;SDS011;43914;57.680;11.982;2024-01-11T02:21:05;17.80;;;5.90;;
54871;SDS011;43914;57.680;11.982;2024-01-11T02:23:34;13.40;;;5.30;;
54871;SDS011;43914;57.680;11.982;2024-01-11T02:26:06;13.10;;;5.60;;
54871;SDS011;43914;57.680;11.982;2024-01-11T02:28:32;12.10;;;5.30;;
54871;SDS011;43914;57.680;11.982;2024-01-11T02:30:57;14.70;;;5.80;;
54871;SDS011;43914;57.680;11.982;2024-01-11T02:33:23;16.00;;;6.60;;
54871;SDS011;43914;57.680;11.982;2024-01-11T02:35:48;15.10;;;6.30;;
54871;SDS011;43914;57.680;11.982;2024-01-11T02:38:15;15.90;;;6.70;;
54871;SDS011;43914;57.680;11.982;2024-01-11T02:40:41;13.30;;;5.80;;
54871;SDS011;43914;57.680;11.982;2024-01-11T02:43:08;15.40;;;6.70;;
54871;SDS011;43914;57.680;11.982;2024-01-11T02:45:35;13.80;;;6.00;;
54871;SDS011;43914;57.680;11.982;2024-01-11T02:48:02;12.60;;;5.20;;
54871;SDS011;43914;57.680;11.982;2024-01-11T02:50:27;13.00;;;4.90;;
54871;SDS011;43914;57.680;11.982;2024-01-11T02:52:53;13.30;;;6.00;;
54871;SDS011;43914;57.680;11.982;2024-01-11T02:55:18;14.40;;;5.80;;
54871;SDS011;43914;57.680;11.982;2024-01-11T02:57:44;14.70;;;6.50;;
54871;SDS011;43914;57.680;11.982;2024-01-11T03:00:09;14.30;;;5.40;;
54871;SDS011;43914;57.680;11.982;2024-01-11T03:02:36;12.50;;;5.30;;
54871;SDS011;43914;57.680;11.982;2024-01-11T03:05:03;12.80;;;5.30;;
54871;SDS011;43914;57.680;11.982;2024-01-11T03:07:29;12.70;;;5.80;;
54871;SDS011;43914;57.680;11.982;2024-01-11T03:09:55;14.50;;;6.00;;
54871;SDS011;43914;57.680;11.982;2024-01-11T03:12:21;13.70;;;6.00;;
54871;SDS011;43914;57.680;11.982;2024-01-11T03:14:47;16.20;;;6.50;;
54871;SDS011;43914;57.680;11.982;2024-01-11T03:17:13;14.30;;;7.20;;
54871;SDS011;43914;57.680;11.982;2024-01-11T03:19:39;13.30;;;5.90;;
54871;SDS011;43914;57.680;11.982;2024-01-11T03:22:06;14.60;;;6.70;;
54871;SDS011;43914;57.680;11.982;2024-01-11T03:24:32;17.10;;;7.60;;
54871;SDS011;43914;57.680;11.982;2024-01-11T03:26:58;12.20;;;6.30;;
54871;SDS011;43914;57.680;11.982;2024-01-11T03:29:24;16.90;;;7.70;;
54871;SDS011;43914;57.680;11.982;2024-01-11T03:31:49;13.20;;;6.60;;
54871;SDS011;43914;57.680;11.982;2024-01-11T03:34:15;14.00;;;6.70;;
54871;SDS011;43914;57.680;11.982;2024-01-11T03:36:40;16.20;;;7.30;;
54871;SDS011;43914;57.680;11.982;2024-01-11T03:39:06;15.80;;;7.10;;
54871;SDS011;43914;57.680;11.982;2024-01-11T03:41:31;15.70;;;7.50;;
54871;SDS011;43914;57.680;11.982;2024-01-11T03:43:57;13.00;;;6.40;;
54871;SDS011;43914;57.680;11.982;2024-01-11T03:46:22;13.10;;;7.00;;
54871;SDS011;43914;57.680;11.982;2024-01-11T03:48:48;14.50;;;6.80;;
54871;SDS011;43914;57.680;11.982;2024-01-11T03:51:13;15.10;;;7.90;;
54871;SDS011;43914;57.680;11.982;2024-01-11T03:53:39;15.20;;;7.60;;
54871;SDS011;43914;57.680;11.982;2024-01-11T03:56:04;16.80;;;7.70;;
54871;SDS011;43914;57.680;11.982;2024-01-11T03:58:30;15.90;;;8.10;;
54871;SDS011;43914;57.680;11.982;2024-01-11T04:00:56;14.40;;;7.90;;
54871;SDS011;43914;57.680;11.982;2024-01-11T04:03:21;15.10;;;7.70;;
54871;SDS011;43914;57.680;11.982;2024-01-11T04:05:46;18.20;;;9.10;;
54871;SDS011;43914;57.680;11.982;2024-01-11T04:08:13;16.60;;;9.10;;
54871;SDS011;43914;57.680;11.982;2024-01-11T04:10:39;14.70;;;8.00;;
54871;SDS011;43914;57.680;11.982;2024-01-11T04:13:06;15.50;;;9.10;;
54871;SDS011;43914;57.680;11.982;2024-01-11T04:15:32;17.00;;;8.80;;
54871;SDS011;43914;57.680;11.982;2024-01-11T04:17:58;16.30;;;8.60;;
54871;SDS011;43914;57.680;11.982;2024-01-11T04:20:23;18.80;;;9.70;;
54871;SDS011;43914;57.680;11.982;2024-01-11T04:22:49;15.10;;;8.40;;
54871;SDS011;43914;57.680;11.982;2024-01-11T04:25:15;16.60;;;8.50;;
54871;SDS011;43914;57.680;11.982;2024-01-11T04:27:40;15.30;;;8.60;;
54871;SDS011;43914;57.680;11.982;2024-01-11T04:30:08;16.50;;;9.40;;
54871;SDS011;43914;57.680;11.982;2024-01-11T04:32:34;16.90;;;9.60;;
54871;SDS011;43914;57.680;11.982;2024-01-11T04:34:59;17.30;;;8.50;;
54871;SDS011;43914;57.680;11.982;2024-01-11T04:37:25;16.30;;;8.90;;
54871;SDS011;43914;57.680;11.982;2024-01-11T04:39:50;18.10;;;9.60;;
54871;SDS011;43914;57.680;11.982;2024-01-11T04:42:16;15.60;;;8.70;;
54871;SDS011;43914;57.680;11.982;2024-01-11T04:44:41;15.70;;;8.40;;
54871;SDS011;43914;57.680;11.982;2024-01-11T04:47:07;19.50;;;10.40;;
54871;SDS011;43914;57.680;11.982;2024-01-11T04:49:33;16.60;;;8.60;;
54871;SDS011;43914;57.680;11.982;2024-01-11T04:51:59;20.20;;;11.10;;
54871;SDS011;43914;57.680;11.982;2024-01-11T04:54:24;21.90;;;11.10;;
54871;SDS011;43914;57.680;11.982;2024-01-11T04:56:50;18.80;;;9.80;;
54871;SDS011;43914;57.680;11.982;2024-01-11T04:59:15;21.00;;;11.60;;
54871;SDS011;43914;57.680;11.982;2024-01-11T05:01:41;23.00;;;12.00;;
54871;SDS011;43914;57.680;11.982;2024-01-11T05:04:07;20.50;;;10.80;;
54871;SDS011;43914;57.680;11.982;2024-01-11T05:06:32;22.40;;;12.10;;
54871;SDS011;43914;57.680;11.982;2024-01-11T05:08:58;21.80;;;12.30;;
54871;SDS011;43914;57.680;11.982;2024-01-11T05:11:24;20.80;;;12.10;;
54871;SDS011;43914;57.680;11.982;2024-01-11T05:13:50;25.90;;;13.80;;
54871;SDS011;43914;57.680;11.982;2024-01-11T05:16:17;25.80;;;14.10;;
54871;SDS011;43914;57.680;11.982;2024-01-11T05:18:44;25.70;;;14.90;;
54871;SDS011;43914;57.680;11.982;2024-01-11T05:21:10;25.40;;;13.80;;
54871;SDS011;43914;57.680;11.982;2024-01-11T05:23:35;25.50;;;14.20;;
54871;SDS011;43914;57.680;11.982;2024-01-11T05:26:01;25.90;;;15.10;;
54871;SDS011;43914;57.680;11.982;2024-01-11T05:28:27;25.20;;;14.40;;
54871;SDS011;43914;57.680;11.982;2024-01-11T05:30:53;23.00;;;13.50;;
54871;SDS011;43914;57.680;11.982;2024-01-11T05:33:18;24.40;;;13.30;;
54871;SDS011;43914;57.680;11.982;2024-01-11T05:35:44;26.60;;;14.80;;
54871;SDS011;43914;57.680;11.982;2024-01-11T05:38:09;23.30;;;14.00;;
54871;SDS011;43914;57.680;11.982;2024-01-11T05:40:35;26.20;;;14.40;;
54871;SDS011;43914;57.680;11.982;2024-01-11T05:43:00;24.60;;;14.20;;
54871;SDS011;43914;57.680;11.982;2024-01-11T05:45:25;25.30;;;15.20;;
54871;SDS011;43914;57.680;11.982;2024-01-11T05:47:52;23.40;;;13.30;;
54871;SDS011;43914;57.680;11.982;2024-01-11T05:50:17;21.20;;;12.20;;
54871;SDS011;43914;57.680;11.982;2024-01-11T05:52:43;22.90;;;12.40;;
54871;SDS011;43914;57.680;11.982;2024-01-11T05:55:08;25.20;;;13.90;;
54871;SDS011;43914;57.680;11.982;2024-01-11T05:57:34;22.30;;;12.70;;
54871;SDS011;43914;57.680;11.982;2024-01-11T05:59:59;25.00;;;13.80;;
54871;SDS011;43914;57.680;11.982;2024-01-11T06:02:25;23.70;;;13.70;;
54871;SDS011;43914;57.680;11.982;2024-01-11T06:04:51;23.80;;;13.50;;
54871;SDS011;43914;57.680;11.982;2024-01-11T06:07:16;23.20;;;13.50;;
54871;SDS011;43914;57.680;11.982;2024-01-11T06:09:42;26.90;;;13.80;;
54871;SDS011;43914;57.680;11.982;2024-01-11T06:12:07;24.30;;;14.10;;
54871;SDS011;43914;57.680;11.982;2024-01-11T06:14:34;24.40;;;14.40;;
54871;SDS011;43914;57.680;11.982;2024-01-11T06:16:59;24.70;;;13.90;;
54871;SDS011;43914;57.680;11.982;2024-01-11T06:19:25;25.70;;;14.90;;
54871;SDS011;43914;57.680;11.982;2024-01-11T06:21:50;21.80;;;12.30;;
54871;SDS011;43914;57.680;11.982;2024-01-11T06:24:16;25.20;;;13.10;;
54871;SDS011;43914;57.680;11.982;2024-01-11T06:26:41;25.20;;;13.70;;
54871;SDS011;43914;57.680;11.982;2024-01-11T06:29:07;24.40;;;14.10;;
54871;SDS011;43914;57.680;11.982;2024-01-11T06:31:32;23.10;;;13.20;;
54871;SDS011;43914;57.680;11.982;2024-01-11T06:33:58;23.90;;;12.70;;
54871;SDS011;43914;57.680;11.982;2024-01-11T06:36:23;22.40;;;12.40;;
54871;SDS011;43914;57.680;11.982;2024-01-11T06:38:48;23.50;;;13.20;;
54871;SDS011;43914;57.680;11.982;2024-01-11T06:41:14;25.70;;;13.50;;
54871;SDS011;43914;57.680;11.982;2024-01-11T06:43:39;23.70;;;13.40;;
54871;SDS011;43914;57.680;11.982;2024-01-11T06:46:05;23.10;;;13.40;;
54871;SDS011;43914;57.680;11.982;2024-01-11T06:48:31;24.00;;;12.40;;
54871;SDS011;43914;57.680;11.982;2024-01-11T06:50:57;22.70;;;12.10;;
54871;SDS011;43914;57.680;11.982;2024-01-11T06:53:23;25.80;;;14.00;;
54871;SDS011;43914;57.680;11.982;2024-01-11T06:55:48;24.50;;;13.20;;
54871;SDS011;43914;57.680;11.982;2024-01-11T06:58:15;23.00;;;13.00;;
54871;SDS011;43914;57.680;11.982;2024-01-11T07:00:41;25.10;;;12.40;;
54871;SDS011;43914;57.680;11.982;2024-01-11T07:03:11;22.40;;;11.80;;
54871;SDS011;43914;57.680;11.982;2024-01-11T07:05:36;22.30;;;12.00;;
54871;SDS011;43914;57.680;11.982;2024-01-11T07:08:02;22.10;;;12.80;;
54871;SDS011;43914;57.680;11.982;2024-01-11T07:10:29;22.40;;;13.30;;
54871;SDS011;43914;57.680;11.982;2024-01-11T07:12:55;21.90;;;12.20;;
54871;SDS011;43914;57.680;11.982;2024-01-11T07:15:20;23.50;;;12.10;;
54871;SDS011;43914;57.680;11.982;2024-01-11T07:17:46;23.00;;;12.70;;
54871;SDS011;43914;57.680;11.982;2024-01-11T07:20:11;23.50;;;12.40;;
54871;SDS011;43914;57.680;11.982;2024-01-11T07:22:38;25.10;;;11.60;;
54871;SDS011;43914;57.680;11.982;2024-01-11T07:25:03;23.10;;;12.80;;
54871;SDS011;43914;57.680;11.982;2024-01-11T07:27:30;22.10;;;11.50;;
54871;SDS011;43914;57.680;11.982;2024-01-11T07:29:56;17.70;;;7.80;;
54871;SDS011;43914;57.680;11.982;2024-01-11T07:32:21;30.80;;;9.70;;
54871;SDS011;43914;57.680;11.982;2024-01-11T07:34:47;22.50;;;12.10;;
54871;SDS011;43914;57.680;11.982;2024-01-11T07:37:12;20.00;;;11.20;;
54871;SDS011;43914;57.680;11.982;2024-01-11T07:39:38;21.80;;;10.60;;
54871;SDS011;43914;57.680;11.982;2024-01-11T07:42:03;18.90;;;10.40;;
54871;SDS011;43914;57.680;11.982;2024-01-11T07:44:29;18.00;;;10.30;;
54871;SDS011;43914;57.680;11.982;2024-01-11T07:46:54;19.40;;;10.20;;
54871;SDS011;43914;57.680;11.982;2024-01-11T07:49:21;18.20;;;10.30;;
54871;SDS011;43914;57.680;11.982;2024-01-11T07:51:46;18.50;;;9.50;;
54871;SDS011;43914;57.680;11.982;2024-01-11T07:54:12;18.30;;;10.50;;
54871;SDS011;43914;57.680;11.982;2024-01-11T07:56:37;19.60;;;10.60;;
54871;SDS011;43914;57.680;11.982;2024-01-11T07:59:03;18.70;;;10.20;;
54871;SDS011;43914;57.680;11.982;2024-01-11T08:01:29;18.70;;;9.50;;
54871;SDS011;43914;57.680;11.982;2024-01-11T08:03:55;19.40;;;10.50;;
54871;SDS011;43914;57.680;11.982;2024-01-11T08:06:20;19.80;;;10.30;;
54871;SDS011;43914;57.680;11.982;2024-01-11T08:08:46;18.40;;;9.10;;
54871;SDS011;43914;57.680;11.982;2024-01-11T08:11:16;19.60;;;10.00;;
54871;SDS011;43914;57.680;11.982;2024-01-11T08:13:42;17.20;;;8.80;;
54871;SDS011;43914;57.680;11.982;2024-01-11T08:16:08;17.30;;;10.20;;
54871;SDS011;43914;57.680;11.982;2024-01-11T08:18:35;19.50;;;9.40;;
54871;SDS011;43914;57.680;11.982;2024-01-11T08:21:00;18.20;;;9.50;;
54871;SDS011;43914;57.680;11.982;2024-01-11T08:23:26;16.50;;;9.20;;
54871;SDS011;43914;57.680;11.982;2024-01-11T08:25:51;17.30;;;8.00;;
54871;SDS011;43914;57.680;11.982;2024-01-11T08:28:26;18.30;;;8.70;;
54871;SDS011;43914;57.680;11.982;2024-01-11T08:30:52;16.40;;;9.10;;
54871;SDS011;43914;57.680;11.982;2024-01-11T08:33:17;18.30;;;8.70;;
54871;SDS011;43914;57.680;11.982;2024-01-11T08:35:42;15.90;;;8.90;;
54871;SDS011;43914;57.680;11.982;2024-01-11T08:38:08;17.50;;;8.30;;
54871;SDS011;43914;57.680;11.982;2024-01-11T08:40:34;14.30;;;8.00;;
54871;SDS011;43914;57.680;11.982;2024-01-11T08:43:00;15.50;;;8.20;;
54871;SDS011;43914;57.680;11.982;2024-01-11T08:45:25;14.70;;;7.80;;
54871;SDS011;43914;57.680;11.982;2024-01-11T08:47:51;17.60;;;8.00;;
54871;SDS011;43914;57.680;11.982;2024-01-11T08:50:17;17.10;;;8.60;;
54871;SDS011;43914;57.680;11.982;2024-01-11T08:52:46;16.50;;;8.00;;
54871;SDS011;43914;57.680;11.982;2024-01-11T08:55:11;16.80;;;9.30;;
54871;SDS011;43914;57.680;11.982;2024-01-11T08:57:37;16.90;;;8.90;;
54871;SDS011;43914;57.680;11.982;2024-01-11T09:00:03;15.70;;;8.20;;
54871;SDS011;43914;57.680;11.982;2024-01-11T09:02:31;17.70;;;8.40;;
54871;SDS011;43914;57.680;11.982;2024-01-11T09:04:57;14.90;;;8.10;;
54871;SDS011;43914;57.680;11.982;2024-01-11T09:07:22;15.00;;;8.50;;
54871;SDS011;43914;57.680;11.982;2024-01-11T09:09:48;18.60;;;9.00;;
54871;SDS011;43914;57.680;11.982;2024-01-11T09:12:13;13.80;;;7.40;;
54871;SDS011;43914;57.680;11.982;2024-01-11T09:14:39;15.50;;;7.60;;
54871;SDS011;43914;57.680;11.982;2024-01-11T09:17:04;14.60;;;8.10;;
54871;SDS011;43914;57.680;11.982;2024-01-11T09:19:32;17.20;;;8.50;;
54871;SDS011;43914;57.680;11.982;2024-01-11T09:22:02;15.50;;;8.40;;
54871;SDS011;43914;57.680;11.982;2024-01-11T09:24:28;15.40;;;8.20;;
54871;SDS011;43914;57.680;11.982;2024-01-11T09:26:53;16.40;;;9.00;;
54871;SDS011;43914;57.680;11.982;2024-01-11T09:29:25;17.10;;;9.00;;
54871;SDS011;43914;57.680;11.982;2024-01-11T09:31:51;15.40;;;8.10;;
54871;SDS011;43914;57.680;11.982;2024-01-11T09:34:16;18.20;;;8.50;;
54871;SDS011;43914;57.680;11.982;2024-01-11T09:36:42;17.80;;;8.60;;
54871;SDS011;43914;57.680;11.982;2024-01-11T09:39:07;19.70;;;8.90;;
54871;SDS011;43914;57.680;11.982;2024-01-11T09:41:34;16.80;;;7.30;;
54871;SDS011;43914;57.680;11.982;2024-01-11T09:44:03;16.50;;;8.10;;
54871;SDS011;43914;57.680;11.982;2024-01-11T09:46:30;15.90;;;8.30;;
54871;SDS011;43914;57.680;11.982;2024-01-11T09:48:57;17.20;;;8.50;;
54871;SDS011;43914;57.680;11.982;2024-01-11T09:51:24;17.50;;;8.30;;
54871;SDS011;43914;57.680;11.982;2024-01-11T09:53:51;15.70;;;8.10;;
54871;SDS011;43914;57.680;11.982;2024-01-11T09:56:20;15.70;;;7.90;;
54871;SDS011;43914;57.680;11.982;2024-01-11T09:58:46;14.90;;;7.80;;
54871;SDS011;43914;57.680;11.982;2024-01-11T10:01:15;17.10;;;7.20;;
54871;SDS011;43914;57.680;11.982;2024-01-11T10:03:42;18.00;;;8.90;;
54871;SDS011;43914;57.680;11.982;2024-01-11T10:06:09;15.60;;;7.90;;
54871;SDS011;43914;57.680;11.982;2024-01-11T10:08:36;14.10;;;7.10;;
54871;SDS011;43914;57.680;11.982;2024-01-11T10:11:02;17.60;;;8.00;;
54871;SDS011;43914;57.680;11.982;2024-01-11T10:13:28;15.80;;;7.40;;
54871;SDS011;43914;57.680;11.982;2024-01-11T10:16:08;14.70;;;7.30;;
54871;SDS011;43914;57.680;11.982;2024-01-11T10:18:35;16.20;;;7.40;;
54871;SDS011;43914;57.680;11.982;2024-01-11T10:21:02;16.70;;;7.60;;
54871;SDS011;43914;57.680;11.982;2024-01-11T10:23:28;15.70;;;6.80;;
54871;SDS011;43914;57.680;11.982;2024-01-11T10:25:56;15.40;;;7.40;;
54871;SDS011;43914;57.680;11.982;2024-01-11T10:28:24;16.30;;;7.20;;
54871;SDS011;43914;57.680;11.982;2024-01-11T10:30:51;16.00;;;7.10;;
54871;SDS011;43914;57.680;11.982;2024-01-11T10:33:21;15.90;;;7.00;;
54871;SDS011;43914;57.680;11.982;2024-01-11T10:35:50;13.40;;;6.00;;
54871;SDS011;43914;57.680;11.982;2024-01-11T10:38:15;16.40;;;6.50;;
54871;SDS011;43914;57.680;11.982;2024-01-11T10:40:42;16.10;;;6.60;;
54871;SDS011;43914;57.680;11.982;2024-01-11T10:43:08;14.90;;;6.90;;
54871;SDS011;43914;57.680;11.982;2024-01-11T10:45:40;15.00;;;6.30;;
54871;SDS011;43914;57.680;11.982;2024-01-11T10:48:07;15.30;;;6.90;;
54871;SDS011;43914;57.680;11.982;2024-01-11T10:50:43;16.30;;;7.00;;
54871;SDS011;43914;57.680;11.982;2024-01-11T10:53:28;14.10;;;6.80;;
54871;SDS011;43914;57.680;11.982;2024-01-11T10:56:06;17.40;;;7.10;;
54871;SDS011;43914;57.680;11.982;2024-01-11T10:58:33;13.70;;;6.50;;
54871;SDS011;43914;57.680;11.982;2024-01-11T11:01:00;13.40;;;6.20;;
54871;SDS011;43914;57.680;11.982;2024-01-11T11:03:27;15.30;;;7.00;;
54871;SDS011;43914;57.680;11.982;2024-01-11T11:05:56;13.20;;;6.00;;
54871;SDS011;43914;57.680;11.982;2024-01-11T11:08:24;13.60;;;6.70;;
54871;SDS011;43914;57.680;11.982;2024-01-11T11:10:58;14.40;;;7.10;;
54871;SDS011;43914;57.680;11.982;2024-01-11T11:13:25;13.30;;;6.90;;
54871;SDS011;43914;57.680;11.982;2024-01-11T11:15:52;15.20;;;6.70;;
54871;SDS011;43914;57.680;11.982;2024-01-11T11:18:19;12.80;;;5.80;;
54871;SDS011;43914;57.680;11.982;2024-01-11T11:20:46;12.90;;;6.00;;
54871;SDS011;43914;57.680;11.982;2024-01-11T11:23:14;12.90;;;5.50;;
54871;SDS011;43914;57.680;11.982;2024-01-11T11:25:42;12.70;;;5.60;;
54871;SDS011;43914;57.680;11.982;2024-01-11T11:28:14;12.30;;;6.10;;
54871;SDS011;43914;57.680;11.982;2024-01-11T11:30:43;11.10;;;4.80;;
54871;SDS011;43914;57.680;11.982;2024-01-11T11:33:25;11.10;;;5.20;;
54871;SDS011;43914;57.680;11.982;2024-01-11T11:35:54;12.30;;;5.20;;
54871;SDS011;43914;57.680;11.982;2024-01-11T11:38:25;12.80;;;5.40;;
54871;SDS011;43914;57.680;11.982;2024-01-11T11:40:53;10.70;;;5.00;;
54871;SDS011;43914;57.680;11.982;2024-01-11T11:43:20;11.30;;;5.00;;
54871;SDS011;43914;57.680;11.982;2024-01-11T11:45:46;11.70;;;5.50;;
54871;SDS011;43914;57.680;11.982;2024-01-11T11:51:07;13.20;;;5.60;;
54871;SDS011;43914;57.680;11.982;2024-01-11T11:53:36;13.50;;;5.90;;
54871;SDS011;43914;57.680;11.982;2024-01-11T11:56:03;12.50;;;5.60;;
54871;SDS011;43914;57.680;11.982;2024-01-11T11:58:30;10.70;;;4.90;;
54871;SDS011;43914;57.680;11.982;2024-01-11T12:00:57;12.10;;;5.30;;
54871;SDS011;43914;57.680;11.982;2024-01-11T12:05:58;13.20;;;5.40;;
54871;SDS011;43914;57.680;11.982;2024-01-11T12:08:26;10.40;;;5.00;;
54871;SDS011;43914;57.680;11.982;2024-01-11T12:10:52;12.20;;;4.10;;
54871;SDS011;43914;57.680;11.982;2024-01-11T12:13:18;12.10;;;4.10;;
54871;SDS011;43914;57.680;11.982;2024-01-11T12:15:44;9.60;;;3.90;;
54871;SDS011;43914;57.680;11.982;2024-01-11T12:18:10;8.90;;;3.80;;
54871;SDS011;43914;57.680;11.982;2024-01-11T12:20:35;9.60;;;4.20;;
54871;SDS011;43914;57.680;11.982;2024-01-11T12:23:00;9.60;;;3.50;;
54871;SDS011;43914;57.680;11.982;2024-01-11T12:25:30;8.60;;;3.60;;
54871;SDS011;43914;57.680;11.982;2024-01-11T12:27:56;8.70;;;3.60;;
54871;SDS011;43914;57.680;11.982;2024-01-11T12:30:22;10.60;;;4.40;;
54871;SDS011;43914;57.680;11.982;2024-01-11T12:32:49;10.10;;;3.70;;
54871;SDS011;43914;57.680;11.982;2024-01-11T12:35:16;9.40;;;4.30;;
54871;SDS011;43914;57.680;11.982;2024-01-11T12:40:40;9.60;;;4.30;;
54871;SDS011;43914;57.680;11.982;2024-01-11T12:43:06;9.40;;;4.00;;
54871;SDS011;43914;57.680;11.982;2024-01-11T12:45:35;10.30;;;4.20;;
54871;SDS011;43914;57.680;11.982;2024-01-11T12:48:02;11.20;;;4.90;;
54871;SDS011;43914;57.680;11.982;2024-01-11T12:50:28;11.40;;;4.70;;
54871;SDS011;43914;57.680;11.982;2024-01-11T12:53:14;11.50;;;4.60;;
54871;SDS011;43914;57.680;11.982;2024-01-11T12:58:13;11.50;;;4.60;;
54871;SDS011;43914;57.680;11.982;2024-01-11T13:00:44;9.70;;;4.10;;
54871;SDS011;43914;57.680;11.982;2024-01-11T13:03:09;10.60;;;3.90;;
54871;SDS011;43914;57.680;11.982;2024-01-11T13:05:35;10.60;;;3.90;;
54871;SDS011;43914;57.680;11.982;2024-01-11T13:08:01;7.40;;;3.20;;
54871;SDS011;43914;57.680;11.982;2024-01-11T13:10:28;9.10;;;3.10;;
54871;SDS011;43914;57.680;11.982;2024-01-11T13:12:55;7.80;;;2.80;;
54871;SDS011;43914;57.680;11.982;2024-01-11T13:15:21;7.70;;;3.20;;
54871;SDS011;43914;57.680;11.982;2024-01-11T13:17:48;9.60;;;3.50;;
54871;SDS011;43914;57.680;11.982;2024-01-11T13:20:14;8.70;;;3.10;;
54871;SDS011;43914;57.680;11.982;2024-01-11T13:22:40;8.70;;;3.30;;
54871;SDS011;43914;57.680;11.982;2024-01-11T13:25:06;8.40;;;3.20;;
54871;SDS011;43914;57.680;11.982;2024-01-11T13:27:32;8.90;;;3.20;;
54871;SDS011;43914;57.680;11.982;2024-01-11T13:29:57;9.30;;;3.30;;
54871;SDS011;43914;57.680;11.982;2024-01-11T13:32:23;8.20;;;3.10;;
54871;SDS011;43914;57.680;11.982;2024-01-11T13:34:49;9.00;;;3.10;;
54871;SDS011;43914;57.680;11.982;2024-01-11T13:37:18;10.40;;;3.40;;
54871;SDS011;43914;57.680;11.982;2024-01-11T13:39:45;9.60;;;3.30;;
54871;SDS011;43914;57.680;11.982;2024-01-11T13:42:10;8.90;;;3.30;;
54871;SDS011;43914;57.680;11.982;2024-01-11T13:44:36;8.80;;;3.50;;
54871;SDS011;43914;57.680;11.982;2024-01-11T13:47:03;9.00;;;3.10;;
54871;SDS011;43914;57.680;11.982;2024-01-11T13:49:28;7.70;;;2.90;;
54871;SDS011;43914;57.680;11.982;2024-01-11T13:51:54;8.70;;;2.90;;
54871;SDS011;43914;57.680;11.982;2024-01-11T13:54:19;9.40;;;3.00;;
54871;SDS011;43914;57.680;11.982;2024-01-11T13:56:47;8.20;;;3.00;;
54871;SDS011;43914;57.680;11.982;2024-01-11T13:59:12;8.60;;;2.70;;
54871;SDS011;43914;57.680;11.982;2024-01-11T14:01:39;8.60;;;3.00;;
54871;SDS011;43914;57.680;11.982;2024-01-11T14:04:05;8.10;;;2.60;;
54871;SDS011;43914;57.680;11.982;2024-01-11T14:06:30;6.60;;;2.60;;
54871;SDS011;43914;57.680;11.982;2024-01-11T14:08:56;7.80;;;2.60;;
54871;SDS011;43914;57.680;11.982;2024-01-11T14:11:21;6.30;;;2.50;;
54871;SDS011;43914;57.680;11.982;2024-01-11T14:13:47;8.00;;;2.50;;
54871;SDS011;43914;57.680;11.982;2024-01-11T14:16:13;7.50;;;2.50;;
54871;SDS011;43914;57.680;11.982;2024-01-11T14:18:41;7.90;;;2.60;;
54871;SDS011;43914;57.680;11.982;2024-01-11T14:21:06;7.40;;;2.60;;
54871;SDS011;43914;57.680;11.982;2024-01-11T14:23:32;7.70;;;2.50;;
54871;SDS011;43914;57.680;11.982;2024-01-11T14:25:58;8.00;;;2.90;;
54871;SDS011;43914;57.680;11.982;2024-01-11T14:28:23;6.80;;;2.50;;